Time;durP1;ratioP1;P1;durP2;ratioP2;P2;SDS_P1;SDS_P2;PMS_P1;PMS_P2;Temp;Humidity;BMP_temperature;BMP_pressure;BME280_temperature;BME280_humidity;BME280_pressure;Samples;Min_cycle;Max_cycle;Signal;HPM_P1;HPM_P2
2022/08/28 00:00:23;;;;;;;;;8.75;8.50;;;;;22.73;42.01;101264.41;5056063;28;45458;-69
2022/08/28 00:02:49;;;;;;;;;6.75;6.75;;;;;22.76;42.19;101277.78;5033012;28;45428;-70
2022/08/28 00:05:16;;;;;;;;;7.00;7.00;;;;;22.76;42.56;101278.66;5040427;28;45306;-69
2022/08/28 00:07:42;;;;;;;;;8.00;8.00;;;;;22.67;42.70;101265.75;5027934;28;45306;-69
2022/08/28 00:10:09;;;;;;;;;6.75;6.00;;;;;22.70;42.63;101276.41;5055705;28;45673;-69
2022/08/28 00:12:35;;;;;;;;;7.50;5.75;;;;;22.69;42.60;101268.34;5039594;28;45608;-69
2022/08/28 00:15:03;;;;;;;;;6.25;6.00;;;;;22.70;42.54;101272.78;5040494;28;45320;-69
2022/08/28 00:17:28;;;;;;;;;7.00;7.00;;;;;22.66;43.24;101265.88;5039916;28;45439;-69
2022/08/28 00:19:54;;;;;;;;;7.00;6.00;;;;;22.69;42.81;101268.34;5040304;28;45363;-69
2022/08/28 00:22:19;;;;;;;;;7.25;7.25;;;;;22.63;42.98;101260.66;5040582;28;45374;-69
2022/08/28 00:24:44;;;;;;;;;8.25;6.75;;;;;22.63;43.07;101269.66;5040385;28;45467;-69
2022/08/28 00:29:54;;;;;;;;;6.25;6.00;;;;;22.61;42.98;101270.78;5040204;28;45461;-69
2022/08/28 00:32:22;;;;;;;;;6.00;6.00;;;;;22.48;42.71;101263.53;5040495;28;45418;-69
2022/08/28 00:34:47;;;;;;;;;7.75;7.75;;;;;22.48;42.85;101268.97;5030091;28;45361;-69
2022/08/28 00:37:13;;;;;;;;;7.00;6.00;;;;;22.45;43.03;101273.75;5045666;28;45164;-69
2022/08/28 00:39:38;;;;;;;;;8.50;6.50;;;;;22.40;43.07;101268.66;5039744;28;45450;-69
2022/08/28 00:42:04;;;;;;;;;7.75;7.00;;;;;22.39;43.26;101277.81;5040234;28;46293;-69
2022/08/28 00:44:30;;;;;;;;;7.00;7.00;;;;;22.37;43.42;101274.34;5055195;28;45317;-69
2022/08/28 00:46:57;;;;;;;;;4.75;4.75;;;;;22.32;43.23;101271.97;5040411;28;45477;-69
2022/08/28 00:49:26;;;;;;;;;6.25;5.25;;;;;22.30;43.34;101276.66;5039043;28;45268;-69
2022/08/28 00:52:11;;;;;;;;;6.00;6.00;;;;;22.29;43.74;101276.75;5039986;28;45317;-69
2022/08/28 00:54:51;;;;;;;;;4.75;4.00;;;;;22.31;43.91;101280.22;5040066;28;45437;-69
2022/08/28 00:57:24;;;;;;;;;8.25;6.00;;;;;22.32;44.06;101276.50;5039893;28;45438;-69
2022/08/28 00:59:50;;;;;;;;;5.25;4.75;;;;;22.29;43.61;101276.75;5040050;28;45403;-69
2022/08/28 01:02:16;;;;;;;;;5.75;5.75;;;;;22.28;43.89;101280.41;5035051;28;45635;-69
2022/08/28 01:04:42;;;;;;;;;5.50;5.50;;;;;22.26;43.86;101275.09;5039811;28;45414;-69
2022/08/28 01:07:11;;;;;;;;;5.50;4.50;;;;;22.26;44.21;101269.66;5039345;28;45398;-69
2022/08/28 01:09:42;;;;;;;;;6.00;6.00;;;;;22.24;44.11;101268.03;5039791;28;45482;-69
2022/08/28 01:12:13;;;;;;;;;7.00;5.50;;;;;22.26;44.26;101274.22;5054499;28;47150;-69
2022/08/28 01:14:40;;;;;;;;;5.50;5.00;;;;;22.25;44.19;101278.78;5039579;28;45284;-69
2022/08/28 01:17:08;;;;;;;;;5.00;4.25;;;;;22.25;44.46;101276.06;5039063;28;45253;-69
2022/08/28 01:19:38;;;;;;;;;6.25;6.00;;;;;22.17;44.15;101271.19;5038805;28;45306;-69
2022/08/28 01:22:07;;;;;;;;;6.00;5.50;;;;;22.19;44.55;101284.69;5039403;28;45332;-69
2022/08/28 01:24:34;;;;;;;;;4.25;4.25;;;;;22.17;44.87;101279.34;5039764;28;45437;-69
2022/08/28 01:26:59;;;;;;;;;6.50;6.25;;;;;22.13;44.85;101275.09;5039835;28;45474;-69
2022/08/28 01:29:27;;;;;;;;;5.25;4.75;;;;;22.05;44.13;101258.47;5039603;28;45375;-69
2022/08/28 01:31:53;;;;;;;;;6.00;6.00;;;;;22.08;44.63;101266.41;5039411;28;45308;-69
2022/08/28 01:34:18;;;;;;;;;7.00;4.75;;;;;22.13;44.50;101260.66;5031283;28;45178;-69
2022/08/28 01:36:45;;;;;;;;;5.25;5.25;;;;;22.08;44.84;101250.09;5035948;28;45472;-69
2022/08/28 01:39:22;;;;;;;;;6.50;5.00;;;;;22.12;44.49;101262.50;5055000;28;45333;-69
2022/08/28 01:41:50;;;;;;;;;4.75;4.75;;;;;22.12;44.97;101264.34;5026453;28;45351;-69
2022/08/28 01:44:18;;;;;;;;;4.50;4.50;;;;;22.09;45.12;101265.44;5039077;28;45418;-69
2022/08/28 01:46:45;;;;;;;;;6.75;3.75;;;;;21.98;44.80;101249.03;5039639;28;45395;-69
2022/08/28 01:49:10;;;;;;;;;6.00;5.25;;;;;22.06;44.76;101262.09;5037609;28;45253;-69
2022/08/28 01:51:38;;;;;;;;;6.25;6.00;;;;;22.02;44.78;101256.88;5039077;28;45369;-69
2022/08/28 01:54:03;;;;;;;;;4.50;4.50;;;;;22.01;44.94;101254.25;5039115;28;45378;-69
2022/08/28 01:56:29;;;;;;;;;6.50;6.50;;;;;22.00;45.00;101247.97;5039543;28;45413;-69
2022/08/28 01:58:54;;;;;;;;;5.00;5.00;;;;;21.98;44.91;101252.63;5039039;28;45387;-69
2022/08/28 02:01:20;;;;;;;;;5.50;5.50;;;;;21.90;45.52;101243.28;5038976;28;45426;-69
2022/08/28 02:03:46;;;;;;;;;6.25;5.00;;;;;21.83;45.33;101241.03;5038733;28;45366;-69
2022/08/28 02:06:12;;;;;;;;;6.00;6.00;;;;;21.93;45.44;101257.53;5038350;28;45327;-69
2022/08/28 02:08:38;;;;;;;;;5.50;5.50;;;;;21.93;45.64;101262.09;5038993;28;45387;-69
2022/08/28 02:11:05;;;;;;;;;5.50;5.50;;;;;21.91;45.11;101259.50;5038848;28;46306;-69
2022/08/28 02:13:31;;;;;;;;;5.00;5.00;;;;;21.89;45.70;101266.03;5037964;28;45229;-69
2022/08/28 02:15:56;;;;;;;;;4.00;4.00;;;;;21.78;45.47;101248.63;5038211;28;45334;-69
2022/08/28 02:18:21;;;;;;;;;5.25;4.50;;;;;21.87;45.42;101265.25;5038890;28;45489;-69
2022/08/28 02:20:47;;;;;;;;;6.50;6.00;;;;;21.84;45.33;101259.06;5038755;28;45342;-69
2022/08/28 02:23:12;;;;;;;;;4.00;4.00;;;;;21.81;45.89;101258.41;5038774;28;45375;-69
2022/08/28 02:25:38;;;;;;;;;6.00;5.00;;;;;21.77;46.04;101263.22;5042184;28;45229;-69
2022/08/28 02:28:04;;;;;;;;;6.50;5.00;;;;;21.61;46.02;101240.81;5042339;28;45388;-69
2022/08/28 02:30:29;;;;;;;;;5.00;4.00;;;;;21.70;46.42;101259.19;5053982;28;47709;-69
2022/08/28 02:32:54;;;;;;;;;7.00;4.00;;;;;21.62;46.21;101248.00;5035834;28;45359;-69
2022/08/28 02:35:21;;;;;;;;;5.50;5.00;;;;;21.68;45.82;101257.56;5041958;28;45374;-69
2022/08/28 02:37:48;;;;;;;;;5.75;4.00;;;;;21.58;46.19;101246.47;5041928;28;45233;-69
2022/08/28 02:40:15;;;;;;;;;5.25;4.25;;;;;21.67;45.99;101259.41;5042151;28;46202;-69
2022/08/28 02:42:41;;;;;;;;;5.00;4.25;;;;;21.58;46.51;101247.31;5041988;28;45352;-69
2022/08/28 02:45:09;;;;;;;;;5.00;5.00;;;;;21.57;46.26;101248.31;5039835;28;45416;-69
2022/08/28 02:47:35;;;;;;;;;5.00;5.00;;;;;21.61;46.68;101259.84;5057320;28;45409;-69
2022/08/28 02:50:00;;;;;;;;;5.00;5.00;;;;;21.59;46.62;101254.50;5057313;28;45853;-69
2022/08/28 02:52:25;;;;;;;;;6.00;6.00;;;;;21.62;46.12;101253.44;5041871;28;45300;-68
2022/08/28 02:54:51;;;;;;;;;5.50;4.00;;;;;21.58;46.48;101250.03;5040903;28;45775;-69
2022/08/28 02:57:16;;;;;;;;;6.00;6.00;;;;;21.58;46.32;101251.91;5041836;28;45391;-69
2022/08/28 02:59:42;;;;;;;;;6.00;6.00;;;;;21.51;46.52;101237.03;5041959;28;45977;-69
2022/08/28 03:02:08;;;;;;;;;4.75;4.75;;;;;21.48;46.91;101245.38;5041512;28;45489;-68
2022/08/28 03:04:35;;;;;;;;;2.00;1.00;;;;;21.49;46.57;101256.16;5041725;28;45932;-69
2022/08/28 03:07:00;;;;;;;;;5.75;4.75;;;;;21.37;46.63;101229.81;5041100;28;45372;-69
2022/08/28 03:09:26;;;;;;;;;4.75;4.75;;;;;21.45;47.14;101250.03;5041762;28;45330;-69
2022/08/28 03:11:54;;;;;;;;;6.00;6.00;;;;;21.36;47.20;101237.09;5040008;28;45439;-69
2022/08/28 03:14:22;;;;;;;;;6.00;5.00;;;;;21.40;47.23;101245.88;5041070;28;45479;-69
2022/08/28 03:16:48;;;;;;;;;5.50;5.50;;;;;21.38;47.13;101240.56;5041494;28;45438;-69
2022/08/28 03:19:14;;;;;;;;;5.25;4.00;;;;;21.23;47.30;101228.94;5040167;28;47948;-69
2022/08/28 03:21:39;;;;;;;;;6.50;6.50;;;;;21.33;47.41;101250.88;5041140;28;45273;-69
2022/08/28 03:24:05;;;;;;;;;5.75;4.50;;;;;21.19;47.56;101234.69;5053724;28;45284;-69
2022/08/28 03:26:30;;;;;;;;;6.00;5.75;;;;;21.23;47.00;101241.63;5038120;28;45186;-69
2022/08/28 03:28:57;;;;;;;;;6.00;4.25;;;;;21.23;47.30;101250.66;5041686;28;45562;-69
2022/08/28 03:31:26;;;;;;;;;5.50;5.50;;;;;21.23;47.32;101253.38;5041298;28;45507;-68
2022/08/28 03:33:52;;;;;;;;;5.00;5.00;;;;;21.22;47.36;101254.34;5036972;28;45399;-69
2022/08/28 03:36:21;;;;;;;;;7.00;6.00;;;;;21.20;47.87;101252.69;5034967;28;45449;-69
2022/08/28 03:38:48;;;;;;;;;5.50;5.50;;;;;21.17;47.87;101250.22;5041420;28;46192;-69
2022/08/28 03:41:15;;;;;;;;;5.00;5.00;;;;;21.16;47.60;101251.19;5039893;28;45473;-69
2022/08/28 03:43:41;;;;;;;;;7.00;5.25;;;;;21.15;48.02;101246.72;5041514;28;45378;-68
2022/08/28 03:46:12;;;;;;;;;7.00;5.50;;;;;21.14;47.86;101247.72;5038840;28;45468;-69
2022/08/28 03:48:38;;;;;;;;;7.75;4.75;;;;;21.14;47.84;101247.72;5040221;28;46291;-69
2022/08/28 03:51:09;;;;;;;;;6.25;6.25;;;;;21.05;48.25;101246.50;5040696;28;45378;-69
2022/08/28 03:53:36;;;;;;;;;7.50;6.25;;;;;21.03;47.65;101251.16;5040346;28;45307;-69
2022/08/28 03:56:05;;;;;;;;;5.25;4.25;;;;;21.03;48.40;101253.88;5040089;28;45378;-69
2022/08/28 03:58:31;;;;;;;;;5.00;5.00;;;;;21.03;48.38;101243.91;5041037;28;45330;-69
2022/08/28 04:00:56;;;;;;;;;5.75;4.00;;;;;21.00;48.35;101237.78;5039493;28;45670;-69
2022/08/28 04:03:21;;;;;;;;;6.00;6.00;;;;;20.97;48.40;101241.59;5040588;28;45392;-68
2022/08/28 04:05:47;;;;;;;;;5.00;5.00;;;;;20.98;48.15;101253.31;5054762;28;45218;-69
2022/08/28 04:08:17;;;;;;;;;7.75;6.00;;;;;20.88;48.28;101251.25;5040449;28;45437;-69
2022/08/28 04:10:43;;;;;;;;;6.00;6.00;;;;;20.88;48.86;101244.91;5040595;28;45398;-69
2022/08/28 04:13:10;;;;;;;;;5.25;5.00;;;;;20.97;48.42;101266.03;5051892;28;46117;-69
2022/08/28 04:15:35;;;;;;;;;6.00;6.00;;;;;20.95;48.74;101267.09;5054031;28;45426;-69
2022/08/28 04:18:01;;;;;;;;;8.00;6.00;;;;;20.91;48.36;101264.59;5040613;28;45369;-69
2022/08/28 04:20:27;;;;;;;;;6.50;4.00;;;;;20.80;48.89;101244.56;5040240;28;45373;-69
2022/08/28 04:22:52;;;;;;;;;6.50;5.00;;;;;20.89;49.07;101271.09;5040710;28;45320;-69
2022/08/28 04:25:18;;;;;;;;;6.25;6.25;;;;;20.85;48.97;101265.00;5040494;28;45294;-69
2022/08/28 04:27:43;;;;;;;;;6.50;6.25;;;;;20.77;48.69;101252.94;5040427;28;45415;-69
2022/08/28 04:30:10;;;;;;;;;4.75;3.50;;;;;20.83;49.13;101263.34;5039037;28;45760;-69
2022/08/28 04:32:37;;;;;;;;;6.50;6.25;;;;;20.80;49.26;101266.28;5040671;28;45456;-69
2022/08/28 04:35:05;;;;;;;;;9.25;6.50;;;;;20.75;49.24;101263.88;5031829;28;45416;-69
2022/08/28 04:37:31;;;;;;;;;6.25;5.00;;;;;20.64;49.11;101253.75;5038684;28;48282;-69
2022/08/28 04:39:57;;;;;;;;;6.50;4.50;;;;;20.62;49.40;101255.66;5040265;28;45298;-69
2022/08/28 04:42:22;;;;;;;;;4.75;4.75;;;;;20.65;49.36;101260.91;5039401;28;45241;-69
2022/08/28 04:44:47;;;;;;;;;10.00;6.50;;;;;20.66;49.36;101264.50;5040034;28;45316;-69
2022/08/28 04:47:13;;;;;;;;;6.00;6.00;;;;;20.57;49.66;101259.66;5039473;28;46568;-69
2022/08/28 04:49:39;;;;;;;;;5.25;5.25;;;;;20.60;49.44;101281.13;5039477;28;45319;-68
2022/08/28 04:52:05;;;;;;;;;6.00;6.00;;;;;20.58;49.94;101280.38;5040356;28;45249;-69
2022/08/28 04:54:34;;;;;;;;;7.50;7.00;;;;;20.52;50.06;101277.09;5040034;28;45253;-69
2022/08/28 04:57:00;;;;;;;;;5.75;5.25;;;;;20.54;50.10;101279.69;5040072;28;45322;-69
2022/08/28 04:59:26;;;;;;;;;7.00;5.25;;;;;20.53;50.01;101276.13;5039964;28;45426;-69
2022/08/28 05:01:52;;;;;;;;;5.00;5.00;;;;;20.55;49.97;101278.75;5035795;28;45248;-69
2022/08/28 05:04:18;;;;;;;;;4.00;4.00;;;;;20.59;50.08;101292.97;5039601;28;45481;-69
2022/08/28 05:06:44;;;;;;;;;6.75;4.75;;;;;20.54;50.12;101287.84;5039300;28;45268;-69
2022/08/28 05:09:12;;;;;;;;;6.00;6.00;;;;;20.43;50.15;101277.72;5038648;28;45372;-69
2022/08/28 05:11:37;;;;;;;;;8.25;7.00;;;;;20.50;50.31;101292.59;5052795;28;45449;-69
2022/08/28 05:14:08;;;;;;;;;4.00;4.00;;;;;20.49;50.53;101292.69;5039765;28;45383;-69
2022/08/28 05:16:41;;;;;;;;;7.75;7.50;;;;;20.35;50.29;101275.50;5039652;28;45320;-69
2022/08/28 05:19:07;;;;;;;;;6.00;6.00;;;;;20.36;50.54;101279.94;5039570;28;45265;-69
2022/08/28 05:21:33;;;;;;;;;5.75;5.50;;;;;20.39;50.62;101283.44;5039622;28;45257;-68
2022/08/28 05:23:58;;;;;;;;;7.75;6.00;;;;;20.37;50.91;101286.22;5039904;28;45161;-69
2022/08/28 05:26:24;;;;;;;;;7.25;5.25;;;;;20.46;50.79;101303.75;5039243;28;46370;-69
2022/08/28 05:28:49;;;;;;;;;6.25;5.50;;;;;20.38;51.02;101295.22;5054812;28;46257;-68
2022/08/28 05:31:17;;;;;;;;;4.00;4.00;;;;;20.39;50.93;101305.97;5038238;28;45653;-69
2022/08/28 05:33:44;;;;;;;;;6.00;6.00;;;;;20.31;51.00;101309.22;5026524;28;45516;-69
2022/08/28 05:36:10;;;;;;;;;4.25;4.25;;;;;20.30;50.86;101317.44;5043871;28;45485;-69
2022/08/28 05:38:36;;;;;;;;;7.25;7.00;;;;;20.27;50.95;101310.34;5038075;28;45556;-69
2022/08/28 05:41:02;;;;;;;;;5.00;5.00;;;;;20.29;51.29;101315.69;5039618;28;45377;-69
2022/08/28 05:43:28;;;;;;;;;4.00;4.00;;;;;20.26;51.31;101319.44;5038634;28;45275;-69
2022/08/28 05:46:09;;;;;;;;;4.75;4.75;;;;;20.26;51.47;101319.44;5039262;28;46187;-68
2022/08/28 05:48:38;;;;;;;;;5.25;4.75;;;;;20.24;51.38;101315.97;5039378;28;45443;-70
2022/08/28 05:51:09;;;;;;;;;8.00;6.00;;;;;20.24;51.47;101313.25;5039372;28;45246;-71
2022/08/28 05:53:37;;;;;;;;;6.00;4.50;;;;;20.23;51.60;101316.97;5039354;28;45498;-71
2022/08/28 05:56:04;;;;;;;;;7.25;5.25;;;;;20.22;51.38;101319.75;5039080;28;46052;-71
2022/08/28 05:58:31;;;;;;;;;6.75;5.25;;;;;20.16;51.65;101313.75;5039300;28;45448;-71
2022/08/28 06:01:05;;;;;;;;;6.75;6.75;;;;;20.10;51.59;101306.03;5039198;28;45504;-71
2022/08/28 06:03:30;;;;;;;;;6.75;6.75;;;;;20.13;52.10;101318.47;5054408;28;45518;-70
2022/08/28 06:05:56;;;;;;;;;7.25;7.00;;;;;20.13;52.20;101322.09;5037781;28;45450;-71
2022/08/28 06:08:21;;;;;;;;;6.50;6.25;;;;;20.11;51.98;101320.44;5057817;28;45692;-71
2022/08/28 06:10:47;;;;;;;;;8.00;6.00;;;;;20.06;51.88;101309.00;5029215;28;45419;-71
2022/08/28 06:13:14;;;;;;;;;5.75;5.75;;;;;20.04;52.39;101308.25;5055117;28;45406;-71
2022/08/28 06:15:43;;;;;;;;;6.25;6.00;;;;;19.97;52.29;101299.63;5042483;28;46225;-71
2022/08/28 06:18:09;;;;;;;;;5.00;5.00;;;;;20.05;52.40;101315.41;5042360;28;45307;-71
2022/08/28 06:20:41;;;;;;;;;7.00;6.00;;;;;20.06;52.48;101309.88;5042586;28;45226;-71
2022/08/28 06:23:07;;;;;;;;;5.00;5.00;;;;;20.07;52.32;101318.91;5042282;28;45239;-71
2022/08/28 06:25:37;;;;;;;;;6.75;5.00;;;;;20.13;52.44;101327.50;5040909;28;47292;-71
2022/08/28 06:28:02;;;;;;;;;7.75;7.00;;;;;20.17;52.66;101320.03;5042317;28;45697;-71
2022/08/28 06:30:28;;;;;;;;;5.25;5.25;;;;;20.06;52.64;101306.31;5042570;28;45430;-71
2022/08/28 06:32:53;;;;;;;;;6.25;6.25;;;;;20.14;52.92;101312.97;5041872;28;52842;-71
2022/08/28 06:35:18;;;;;;;;;4.75;4.75;;;;;20.20;52.42;101327.09;5041872;28;46217;-71
2022/08/28 06:37:44;;;;;;;;;5.75;5.00;;;;;20.17;52.66;101320.03;5041659;28;50680;-71
2022/08/28 06:40:09;;;;;;;;;7.25;6.00;;;;;20.24;52.64;101331.38;5042449;28;45324;-71
2022/08/28 06:42:34;;;;;;;;;7.00;5.00;;;;;20.20;53.03;101325.28;5041413;28;45423;-71
2022/08/28 06:45:00;;;;;;;;;6.75;6.75;;;;;20.14;52.48;101318.38;5041906;28;45556;-71
2022/08/28 06:47:25;;;;;;;;;4.75;4.75;;;;;20.19;52.58;101326.25;5041833;28;45427;-71
2022/08/28 06:49:51;;;;;;;;;9.50;7.25;;;;;20.23;52.71;101327.81;5042006;28;45435;-71
2022/08/28 06:52:16;;;;;;;;;7.50;7.25;;;;;20.21;52.95;101324.28;5041915;28;45338;-71
2022/08/28 06:54:41;;;;;;;;;6.75;6.00;;;;;20.21;52.59;101320.72;5042095;28;46103;-71
2022/08/28 06:57:07;;;;;;;;;6.00;6.00;;;;;20.20;53.02;101321.69;5041785;28;45317;-71
2022/08/28 06:59:32;;;;;;;;;5.50;5.50;;;;;20.22;52.69;101334.19;5042232;28;45165;-71
2022/08/28 08:00:51;;;;;;;;;7.00;4.50;;;;;20.30;53.46;101299.31;4925694;28;45408;-75
2022/08/28 08:03:31;;;;;;;;;8.00;8.00;;;;;20.30;53.31;101290.31;4965270;28;48191;-74
2022/08/28 08:06:16;;;;;;;;;;;;;;;;;;;;;
2022/08/28 08:08:45;;;;;;;;;5.00;5.00;;;;;20.62;53.36;101333.47;4966103;28;69225;-74
2022/08/28 08:11:16;;;;;;;;;8.75;6.75;;;;;20.53;53.40;101310.50;4972320;28;45575;-75
2022/08/28 08:13:42;;;;;;;;;8.50;6.25;;;;;20.80;53.39;101347.66;4977852;28;45346;-75
2022/08/28 08:16:33;;;;;;;;;5.00;5.00;;;;;20.58;53.43;101310.19;4979928;28;45511;-74
2022/08/28 08:19:19;;;;;;;;;7.25;7.25;;;;;20.64;53.54;101310.69;4971607;28;45422;-74
2022/08/28 08:21:47;;;;;;;;;7.00;7.00;;;;;20.72;53.65;101304.78;4985211;28;45399;-73
2022/08/28 08:24:19;;;;;;;;;8.00;8.00;;;;;20.70;53.09;101296.75;4971881;28;45311;-77
2022/08/28 08:26:52;;;;;;;;;6.50;6.50;;;;;20.90;53.21;101329.81;4975137;28;45591;-73
2022/08/28 08:29:47;;;;;;;;;7.50;7.50;;;;;21.04;53.13;101347.91;4978941;28;45480;-75
2022/08/28 08:32:14;;;;;;;;;10.00;9.00;;;;;20.75;53.08;101291.03;4962469;28;45551;-72
2022/08/28 08:34:52;;;;;;;;;;;;;;;;;;;;;
2022/08/28 08:37:20;;;;;;;;;7.00;6.50;;;;;21.15;53.18;101367.06;4965096;28;73064;-72
2022/08/28 08:40:07;;;;;;;;;9.75;7.00;;;;;20.83;52.64;101298.63;4961367;28;45435;-72
2022/08/28 08:42:33;;;;;;;;;8.75;7.00;;;;;21.08;53.17;101344.88;4972762;28;45684;-72
2022/08/28 08:45:04;;;;;;;;;8.00;8.00;;;;;21.25;52.79;101370.88;4969689;28;46253;-72
2022/08/28 08:47:42;;;;;;;;;9.50;8.50;;;;;21.09;52.58;101346.59;4977046;28;45643;-72
2022/08/28 08:50:21;;;;;;;;;8.75;8.25;;;;;21.28;52.74;101367.06;4959901;28;45424;-71
2022/08/28 08:56:38;;;;;;;;;;;;;;;;;;;;;
2022/08/28 08:59:26;;;;;;;;;11.75;10.00;;;;;21.01;52.68;101301.94;4963697;28;73042;-74
2022/08/28 09:16:20;;;;;;;;;10.50;10.25;;;;;21.53;52.29;101320.13;4900413;28;45393;-75
2022/08/28 09:19:05;;;;;;;;;10.75;9.75;;;;;21.41;52.17;101289.22;4899611;29;45380;-77
2022/08/28 09:55:56;;;;;;;;;14.00;13.75;;;;;22.47;51.74;101329.81;5158066;23;46116;-74
2022/08/28 10:02:21;;;;;;;;;11.50;11.25;;;;;22.60;50.60;101326.16;4959413;28;45859;-74
2022/08/28 10:05:18;;;;;;;;;11.50;11.50;;;;;22.62;50.88;101326.91;4996084;28;45638;-73
2022/08/28 10:08:01;;;;;;;;;11.25;11.25;;;;;22.65;50.34;101327.56;4996528;28;45452;-73
2022/08/28 10:10:35;;;;;;;;;11.75;8.75;;;;;22.68;50.86;101321.88;4991573;28;46176;-74
2022/08/28 10:13:19;;;;;;;;;8.25;8.00;;;;;22.60;50.61;101307.13;5004636;28;45375;-74
2022/08/28 10:16:22;;;;;;;;;12.00;12.00;;;;;22.83;50.92;101322.59;4997997;28;45373;-74
2022/08/28 10:19:08;;;;;;;;;13.00;12.00;;;;;22.69;49.96;101288.25;4994229;28;45738;-75
2022/08/28 10:22:18;;;;;;;;;11.75;10.75;;;;;22.95;50.06;101320.81;4993687;28;45692;-74
2022/08/28 10:25:15;;;;;;;;;14.50;11.25;;;;;22.91;49.83;101313.88;5013929;28;45667;-74
2022/08/28 10:28:07;;;;;;;;;;;;;;;;;;;;;
2022/08/28 10:30:50;;;;;;;;;;;;;;;;;;;;;
2022/08/28 10:33:38;;;;;;;;;11.50;10.75;;;;;22.97;50.24;101291.63;4993724;28;75402;-75
2022/08/28 10:36:51;;;;;;;;;9.00;9.00;;;;;22.84;50.39;101266.34;5023492;28;45535;-74
2022/08/28 10:39:36;;;;;;;;;15.25;12.75;;;;;23.07;49.81;101295.41;4987906;28;45649;-75
2022/08/28 10:42:07;;;;;;;;;12.00;10.00;;;;;23.28;49.28;101317.38;4991481;28;45368;-74
2022/08/28 10:44:38;;;;;;;;;9.25;9.25;;;;;23.33;49.36;101319.75;4999299;28;47247;-75
2022/08/28 10:47:18;;;;;;;;;;;;;;;;;;;;;
2022/08/28 10:49:51;;;;;;;;;10.00;9.00;;;;;23.18;49.22;101291.84;5000426;28;68948;-74
2022/08/28 10:56:30;;;;;;;;;9.00;9.00;;;;;23.43;48.97;101318.06;4980467;28;46069;-74
2022/08/28 11:03:16;;;;;;;;;11.00;10.00;;;;;23.39;48.81;101292.06;4997064;28;45932;-76
2022/08/28 11:06:10;;;;;;;;;;;;;;;;;;;;;
2022/08/28 11:08:38;;;;;;;;;9.50;9.50;;;;;23.41;49.07;101287.34;4949256;28;75476;-74
2022/08/28 11:12:09;;;;;;;;;;;;;;;;;;;;;
2022/08/28 11:15:01;;;;;;;;;11.25;11.25;;;;;23.51;48.67;101283.94;4946241;28;69548;-75
2022/08/28 11:17:29;;;;;;;;;9.50;9.00;;;;;23.73;49.10;101313.06;4994083;28;45424;-76
2022/08/28 11:20:02;;;;;;;;;11.75;10.75;;;;;23.56;48.78;101276.25;4993114;28;47368;-74
2022/08/28 11:22:33;;;;;;;;;10.50;10.50;;;;;23.83;48.96;101308.66;4990885;28;45459;-74
2022/08/28 12:13:53;;;;;;;;;8.75;7.00;;;;;24.26;46.96;101264.28;4935230;28;45611;-75
2022/08/28 12:16:19;;;;;;;;;9.00;8.00;;;;;24.41;46.63;101295.75;4941630;28;45504;-75
2022/08/28 12:18:47;;;;;;;;;6.75;6.75;;;;;24.55;46.98;101315.59;4937131;28;45645;-75
2022/08/28 12:21:21;;;;;;;;;9.25;8.25;;;;;24.27;46.44;101260.53;4969478;28;45976;-75
2022/08/28 12:24:03;;;;;;;;;6.75;6.75;;;;;24.58;46.97;101318.09;5009356;28;45615;-74
2022/08/28 12:26:38;;;;;;;;;11.00;8.50;;;;;24.47;45.98;101294.38;5015549;28;45821;-75
2022/08/28 12:29:25;;;;;;;;;10.00;10.00;;;;;24.55;45.98;101304.69;4998737;28;46023;-75
2022/08/28 12:32:17;;;;;;;;;9.75;7.00;;;;;24.56;46.12;101300.97;5019455;28;46192;-73
2022/08/28 12:34:53;;;;;;;;;12.75;9.00;;;;;24.39;46.25;101264.09;5014152;28;45496;-73
2022/08/28 12:37:37;;;;;;;;;8.00;7.50;;;;;24.59;45.69;101301.59;4993886;28;45648;-71
2022/08/28 12:40:25;;;;;;;;;10.25;6.25;;;;;24.63;45.67;101299.47;5016437;28;45596;-71
2022/08/28 12:42:52;;;;;;;;;15.25;12.75;;;;;24.50;45.46;101283.19;5010706;28;46091;-71
2022/08/28 12:45:35;;;;;;;;;8.50;8.50;;;;;24.51;45.34;101278.63;5015749;28;45527;-72
2022/08/28 12:48:09;;;;;;;;;8.00;8.00;;;;;24.38;45.80;101257.78;4995951;28;45445;-73
2022/08/28 12:50:40;;;;;;;;;10.00;8.50;;;;;24.34;46.05;101245.41;5011991;28;45412;-73
2022/08/28 12:53:18;;;;;;;;;10.75;9.00;;;;;24.48;45.93;101257.91;5014540;28;46376;-72
2022/08/28 12:55:45;;;;;;;;;10.00;8.50;;;;;24.62;46.21;101273.16;5015356;28;45682;-73
2022/08/28 12:58:44;;;;;;;;;;;;;;;;;;;;;
2022/08/28 13:01:25;;;;;;;;;9.75;9.75;;;;;24.60;45.55;101253.31;5010345;28;73360;-73
2022/08/28 13:03:55;;;;;;;;;9.00;8.25;;;;;24.80;45.87;101286.28;5008189;28;47535;-73
2022/08/28 13:06:25;;;;;;;;;9.00;9.00;;;;;24.69;45.36;101263.47;4997646;28;46124;-72
2022/08/28 13:09:09;;;;;;;;;;;;;;;;;;;;;
2022/08/28 13:11:46;;;;;;;;;7.25;7.00;;;;;24.81;45.59;101268.88;5013623;28;73296;-74
2022/08/28 13:14:11;;;;;;;;;7.00;6.50;;;;;24.90;44.93;101279.88;5011767;28;45890;-72
2022/08/28 13:16:44;;;;;;;;;6.75;6.75;;;;;24.90;45.46;101268.09;5015337;28;45495;-72
2022/08/28 13:19:22;;;;;;;;;10.00;10.00;;;;;24.85;45.01;101251.25;5015835;28;45373;-72
2022/08/28 13:21:50;;;;;;;;;4.25;3.50;;;;;24.95;45.17;101269.44;5014829;28;45940;-72
2022/08/28 13:33:13;;;;;;;;;6.25;5.50;;;;;25.05;45.23;101269.53;5403397;22;46854;-67
2022/08/28 13:35:40;;;;;;;;;9.25;9.25;;;;;25.08;45.55;101261.06;5017519;28;45332;-68
2022/08/28 13:38:10;;;;;;;;;9.00;7.00;;;;;25.11;45.18;101274.47;5014310;28;45419;-68
2022/08/28 13:40:56;;;;;;;;;10.00;9.25;;;;;25.06;44.42;101256.72;4998563;28;45464;-68
2022/08/28 13:43:24;;;;;;;;;6.75;6.75;;;;;25.11;44.27;101257.22;4999842;28;45245;-68
2022/08/28 13:45:50;;;;;;;;;7.50;7.50;;;;;25.11;45.20;101246.31;4998994;28;45453;-68
2022/08/28 13:48:21;;;;;;;;;8.25;8.25;;;;;25.04;44.89;101235.03;5018837;28;45493;-68
2022/08/28 13:51:05;;;;;;;;;9.50;8.00;;;;;25.18;44.60;101239.31;5004133;28;45562;-68
2022/08/28 13:53:31;;;;;;;;;9.75;8.25;;;;;25.21;44.91;101235.41;5009777;28;45438;-68
2022/08/28 13:55:58;;;;;;;;;8.50;7.75;;;;;25.20;44.24;101222.78;5000235;28;45619;-68
2022/08/28 13:58:25;;;;;;;;;5.75;5.75;;;;;25.27;44.48;101238.53;5008577;28;45510;-68
2022/08/28 14:00:50;;;;;;;;;7.75;7.25;;;;;25.30;44.10;101240.13;5011838;28;45479;-68
2022/08/28 14:03:36;;;;;;;;;7.25;6.50;;;;;25.32;44.91;101230.78;5018909;28;45474;-68
2022/08/28 14:06:09;;;;;;;;;5.50;5.50;;;;;25.36;44.97;101228.69;5000959;28;46148;-68
2022/08/28 14:08:35;;;;;;;;;6.25;6.25;;;;;25.39;45.40;101227.53;4999302;28;45466;-68
2022/08/28 14:11:00;;;;;;;;;6.50;5.75;;;;;25.37;44.95;101224.06;5016638;28;45333;-68
2022/08/28 14:13:26;;;;;;;;;10.00;8.25;;;;;25.28;44.73;101204.75;5006625;28;45424;-68
2022/08/28 14:15:53;;;;;;;;;9.25;8.00;;;;;25.42;44.10;101219.06;4999284;28;45368;-68
2022/08/28 14:18:19;;;;;;;;;9.25;7.50;;;;;25.42;44.32;101224.53;4997878;28;46014;-68
2022/08/28 14:20:45;;;;;;;;;7.75;7.75;;;;;25.39;44.66;101202.94;5001084;28;45416;-68
2022/08/28 14:23:11;;;;;;;;;7.00;7.00;;;;;25.46;44.15;101210.47;5003364;28;45558;-68
2022/08/28 14:25:42;;;;;;;;;9.25;7.00;;;;;25.46;44.32;101207.72;5021213;28;45470;-68
2022/08/28 14:28:08;;;;;;;;;9.00;8.50;;;;;25.55;43.60;101221.59;5022166;28;45398;-69
2022/08/28 14:30:34;;;;;;;;;8.00;7.00;;;;;25.48;43.93;101205.72;5015432;28;45426;-68
2022/08/28 14:32:59;;;;;;;;;7.75;7.00;;;;;25.58;43.91;101208.50;5015761;28;47522;-68
2022/08/28 14:35:25;;;;;;;;;8.00;7.00;;;;;25.62;43.81;101207.22;5014062;28;58014;-69
2022/08/28 14:37:50;;;;;;;;;6.25;5.75;;;;;25.66;43.43;101210.53;5019665;28;45233;-68
2022/08/28 14:40:16;;;;;;;;;7.75;7.75;;;;;25.70;43.31;101201.94;5028654;28;45327;-69
2022/08/28 14:42:41;;;;;;;;;7.00;7.00;;;;;25.72;43.80;101193.59;5024090;28;45332;-68
2022/08/28 14:45:07;;;;;;;;;7.00;7.00;;;;;25.77;43.35;101199.53;5005212;28;47241;-68
2022/08/28 14:47:33;;;;;;;;;9.50;7.75;;;;;25.72;43.52;101185.41;5014921;28;45337;-68
2022/08/28 14:49:58;;;;;;;;;8.25;8.25;;;;;25.77;43.12;101191.31;5011480;28;45368;-68
2022/08/28 14:52:25;;;;;;;;;10.75;8.25;;;;;25.80;43.12;101196.53;5033479;28;45365;-69
2022/08/28 14:54:50;;;;;;;;;5.75;5.75;;;;;25.80;42.73;101191.03;5020612;28;46965;-68